Latest Coastal Weather Observations for Gunn Point

IDD60701

Issued at 11:25 pm CST Friday 1 August 2014 (issued every 10 minutes, with the page automatically refreshed every 10 minutes)

About coastal observations | Map of coastal stations | Coastal observations for NT | Marine services | Other Formats
Station Details ID: 014023 Name: GUNN POINT Lat: -12.25 Lon: 131.04 Height: 25.0 m
Data from the previous 72 hours. | See also: Recent months for locations in Northern Territory
Date/Time
CST
Temp

°C
Wind Pressure Rain
since 9am
mm
Weather Cloud Vis
km
Sea
Height
m
Swell
Dir
 
Speed
knots
Gust
knots
hPa Trend Height
m
Period
s
Dir
01/11:00pm 20.7 CALM 0 0 1014.3 - 0.0 - - - - - - -
01/10:30pm 20.2 CALM 0 0 1013.9 - 0.0 - - - - - - -
01/10:00pm 20.4 SSW 1 2 1013.8 - 0.0 - - - - - - -
01/09:30pm 20.4 SW 1 3 1013.3 - 0.0 - - - - - - -
01/09:00pm 20.8 CALM 0 0 1012.9 - 0.0 - - - - - - -
01/08:30pm 21.4 CALM 0 0 1012.6 - 0.0 - - - - - - -
01/08:00pm 22.8 ENE 1 2 1012.4 - 0.0 - - - - - - -
01/07:30pm 24.1 ENE 2 3 1011.7 - 0.0 - - - - - - -
01/07:00pm 25.3 NE 2 3 1011.6 - 0.0 - - - - - - -
01/06:30pm 26.7 NE 3 6 1011.1 - 0.0 - - - - - - -
01/06:00pm 27.8 NE 4 6 1010.8 - 0.0 - - - - - - -
01/05:30pm 28.8 NE 5 8 1010.7 - 0.0 - - - - - - -
01/05:00pm 29.3 NE 5 9 1010.8 - 0.0 - - - - - - -
01/04:30pm 29.8 NE 6 10 1010.5 - 0.0 - - - - - - -
01/04:00pm 29.8 NE 7 12 1010.6 - 0.0 - - - - - - -
01/03:30pm 29.9 NE 8 14 1010.6 - 0.0 - - - - - - -
01/03:00pm 30.5 NE 8 12 1011.1 - 0.0 - - - - - - -
01/02:30pm 30.7 ENE 7 12 1011.5 - 0.0 - - - - - - -
01/02:00pm 29.9 NE 7 11 1012.4 - 0.0 - - - - - - -
01/01:30pm 30.2 ENE 8 13 1013.1 - 0.0 - - - - - - -
01/01:00pm 30.6 NE 7 10 1013.7 - 0.0 - - - - - - -
01/12:30pm 30.1 ENE 5 11 1013.9 - 0.0 - - - - - - -
01/12:00pm 28.0 NE 7 13 1014.4 - 0.0 - - - - - - -
01/11:30am 28.1 ENE 6 9 1014.9 - 0.0 - - - - - - -
01/11:00am 29.1 ENE 5 8 1015.4 - 0.0 - - - - - - -
01/10:30am 27.5 E 5 8 1015.5 - 0.0 - - - - - - -
01/10:00am 27.0 E 5 8 1015.7 - 0.0 - - - - - - -
01/09:30am 26.5 NE 5 9 1015.3 - 0.0 - - - - - - -
01/09:00am 26.4 ENE 3 6 1015.1 - 0.0 - - - - - - -
01/08:30am 24.3 SE 1 3 1014.9 - 0.0 - - - - - - -
01/08:00am 21.6 CALM 0 0 1015.0 - 0.0 - - - - - - -
01/07:30am 19.8 CALM 0 1 1014.6 - 0.0 - - - - - - -
01/07:00am 18.9 CALM 0 0 1014.6 - 0.0 - - - - - - -
01/06:30am 18.8 CALM 0 0 1014.3 - 0.0 - - - - - - -
01/06:00am 19.0 CALM 0 0 1014.2 - 0.0 - - - - - - -
01/05:30am 19.9 CALM 0 0 1014.0 - 0.0 - - - - - - -
01/05:00am 20.2 CALM 0 0 1014.1 - 0.0 - - - - - - -
01/04:30am 20.1 CALM 0 0 1013.6 - 0.0 - - - - - - -
01/04:00am 19.1 CALM 0 0 1013.7 - 0.0 - - - - - - -
01/03:30am 18.8 CALM 0 0 1013.5 - 0.0 - - - - - - -
01/03:00am 18.9 CALM 0 0 1013.6 - 0.0 - - - - - - -
01/02:30am 17.9 CALM 0 0 1013.6 - 0.0 - - - - - - -
01/02:00am 18.2 CALM 0 0 1013.8 - 0.0 - - - - - - -
01/01:30am 17.9 CALM 0 0 1013.8 - 0.0 - - - - - - -
01/01:00am 18.5 CALM 0 0 1014.1 - 0.0 - - - - - - -
01/12:30am 18.4 CALM 0 0 1013.9 - 0.0 - - - - - - -
01/12:00am 18.8 E 0 0 1013.7 - 0.0 - - - - - - -
 
Date/Time
CST
Temp

°C
Wind Pressure Rain
since 9am
mm
Weather Cloud Vis
km
Sea
Height
m
Swell
Dir
 
Speed
knots
Gust
knots
hPa Trend Height
m
Period
s
Dir
31/11:30pm 19.0 CALM 0 0 1013.7 - 0.0 - - - - - - -
31/11:00pm 18.9 CALM 0 0 1013.9 - 0.0 - - - - - - -
31/10:30pm 18.9 CALM 0 0 1013.4 - 0.0 - - - - - - -
31/10:00pm 19.5 CALM 0 0 1013.2 - 0.0 - - - - - - -
31/09:30pm 19.5 ENE 2 3 1012.6 - 0.0 - - - - - - -
31/09:00pm 19.8 ENE 2 2 1012.4 - 0.0 - - - - - - -
31/08:30pm 20.5 ENE 2 2 1012.3 - 0.0 - - - - - - -
31/08:00pm 21.8 ENE 2 3 1012.2 - 0.0 - - - - - - -
31/07:30pm 23.0 E 2 3 1011.8 - 0.0 - - - - - - -
31/07:00pm 25.3 NE 3 5 1011.8 - 0.0 - - - - - - -
31/06:30pm 26.3 NE 4 8 1011.7 - 0.0 - - - - - - -
31/06:00pm 27.2 NE 5 9 1011.4 - 0.0 - - - - - - -
31/05:30pm 28.0 NE 6 12 1011.3 - 0.0 - - - - - - -
31/05:00pm 28.6 NE 8 13 1011.3 - 0.0 - - - - - - -
31/04:30pm 29.4 NE 8 11 1011.0 - 0.0 - - - - - - -
31/04:00pm 29.7 NNE 7 13 1011.1 - 0.0 - - - - - - -
31/03:30pm 30.9 NE 6 12 1010.9 - 0.0 - - - - - - -
31/03:00pm 31.9 NE 7 11 1011.3 - 0.0 - - - - - - -
31/02:30pm 31.8 ENE 8 12 1011.8 - 0.0 - - - - - - -
31/02:00pm 32.7 ENE 6 13 1012.7 - 0.0 - - - - - - -
31/01:30pm 31.5 ENE 7 15 1013.2 - 0.0 - - - - - - -
31/01:00pm 31.4 ENE 9 15 1013.9 - 0.0 - - - - - - -
31/12:30pm 31.4 ENE 8 14 1014.1 - 0.0 - - - - - - -
31/12:00pm 31.0 ESE 6 11 1014.7 - 0.0 - - - - - - -
31/11:30am 29.6 E 6 11 1015.3 - 0.0 - - - - - - -
31/11:00am 29.4 E 7 13 1015.9 - 0.0 - - - - - - -
31/10:30am 28.1 E 5 8 1015.9 - 0.0 - - - - - - -
31/10:00am 27.3 E 4 7 1016.1 - 0.0 - - - - - - -
31/09:30am 26.9 E 4 8 1015.8 - 0.0 - - - - - - -
31/09:00am 26.1 E 4 6 1015.6 - 0.0 - - - - - - -
31/08:30am 24.3 ESE 1 2 1015.4 - 0.0 - - - - - - -
31/08:00am 21.0 ESE 1 2 1015.6 - 0.0 - - - - - - -
31/07:30am 18.3 CALM 0 0 1015.3 - 0.0 - - - - - - -
31/07:00am 17.9 CALM 0 0 1015.1 - 0.0 - - - - - - -
31/06:30am 18.1 CALM 0 0 1014.8 - 0.0 - - - - - - -
31/06:00am 18.3 CALM 0 0 1014.7 - 0.0 - - - - - - -
31/05:30am 19.0 E 1 2 1014.6 - 0.0 - - - - - - -
31/05:00am 19.4 CALM 0 0 1014.8 - 0.0 - - - - - - -
31/04:30am 19.1 CALM 0 0 1014.4 - 0.0 - - - - - - -
31/04:00am 19.0 CALM 0 0 1014.6 - 0.0 - - - - - - -
31/03:30am 19.6 CALM 0 0 1014.3 - 0.0 - - - - - - -
31/03:00am 19.0 CALM 0 0 1014.5 - 0.0 - - - - - - -
31/02:30am 18.6 CALM 0 0 1014.7 - 0.0 - - - - - - -
31/02:00am 18.9 CALM 0 0 1014.8 - 0.0 - - - - - - -
31/01:30am 19.4 CALM 0 0 1014.6 - 0.0 - - - - - - -
31/01:00am 19.7 S 1 2 1014.8 - 0.0 - - - - - - -
31/12:30am 20.1 S 2 3 1014.6 - 0.0 - - - - - - -
31/12:00am 20.6 S 2 2 1014.4 - 0.0 - - - - - - -
 
Date/Time
CST
Temp

°C
Wind Pressure Rain
since 9am
mm
Weather Cloud Vis
km
Sea
Height
m
Swell
Dir
 
Speed
knots
Gust
knots
hPa Trend Height
m
Period
s
Dir
30/11:30pm 22.6 SSE 2 3 1014.4 - 0.0 - - - - - - -
30/11:00pm 23.9 NE 2 4 1014.5 - 0.0 - - - - - - -
30/10:30pm 24.3 NE 2 4 1014.3 - 0.0 - - - - - - -
30/10:00pm 24.4 NE 3 5 1014.4 - 0.0 - - - - - - -
30/09:30pm 24.7 NE 3 5 1014.1 - 0.0 - - - - - - -
30/09:00pm 24.8 NE 3 5 1014.0 - 0.0 - - - - - - -
30/08:30pm 24.4 NE 3 5 1013.8 - 0.0 - - - - - - -
30/08:00pm 23.9 NE 2 3 1013.6 - 0.0 - - - - - - -
30/07:30pm 24.8 NE 2 4 1013.2 - 0.0 - - - - - - -
30/07:00pm 25.4 NE 3 8 1013.1 - 0.0 - - - - - - -
30/06:30pm 26.4 NE 5 8 1012.6 - 0.0 - - - - - - -
30/06:00pm 27.4 NE 6 11 1012.5 - 0.0 - - - - - - -
30/05:30pm 28.4 NE 7 10 1012.2 - 0.0 - - - - - - -
30/05:00pm 29.2 NE 7 14 1012.3 - 0.0 - - - - - - -
30/04:30pm 29.5 NNE 8 15 1011.9 - 0.0 - - - - - - -
30/04:00pm 29.8 NE 9 14 1012.1 - 0.0 - - - - - - -
30/03:30pm 29.9 NE 8 13 1012.0 - 0.0 - - - - - - -
30/03:00pm 30.0 NE 8 14 1012.2 - 0.0 - - - - - - -
30/02:30pm 30.8 NE 9 14 1012.6 - 0.0 - - - - - - -
30/02:00pm 31.5 NE 8 13 1013.2 - 0.0 - - - - - - -
30/01:30pm 32.3 ENE 8 13 1013.4 - 0.0 - - - - - - -
30/01:00pm 31.8 ENE 8 14 1013.9 - 0.0 - - - - - - -
30/12:30pm 31.6 E 9 15 1014.2 - 0.0 - - - - - - -
30/12:00pm 31.3 E 11 19 1014.7 - 0.0 - - - - - - -
30/11:30am 30.3 E 13 18 1015.3 - 0.0 - - - - - - -
30/11:00am 29.9 ESE 6 11 1016.0 - 0.0 - - - - - - -
30/10:30am 28.5 ESE 8 16 1016.0 - 0.0 - - - - - - -
30/10:00am 28.1 E 7 14 1016.3 - 0.0 - - - - - - -
30/09:30am 26.8 ESE 6 12 1016.3 - 0.0 - - - - - - -
30/09:00am 25.0 ESE 5 8 1016.3 - 0.0 - - - - - - -
30/08:30am 23.0 SE 2 4 1016.2 - 0.0 - - - - - - -
30/08:00am 20.8 SSE 2 4 1016.1 - 0.0 - - - - - - -
30/07:30am 19.1 SSE 2 4 1015.5 - 0.0 - - - - - - -
30/07:00am 16.4 CALM 0 0 1015.4 - 0.0 - - - - - - -
30/06:30am 16.6 CALM 0 0 1014.8 - 0.0 - - - - - - -
30/06:00am 17.8 CALM 0 0 1014.7 - 0.0 - - - - - - -
30/05:30am 17.6 CALM 0 0 1014.6 - 0.0 - - - - - - -
30/05:00am 18.1 CALM 0 0 1014.7 - 0.0 - - - - - - -
30/04:30am 18.3 CALM 0 0 1014.4 - 0.0 - - - - - - -
30/04:00am 18.8 CALM 0 0 1014.4 - 0.0 - - - - - - -
30/03:30am 19.2 CALM 0 0 1014.2 - 0.0 - - - - - - -
30/03:00am 19.6 ESE 2 2 1014.3 - 0.0 - - - - - - -
30/02:30am 21.0 E 1 3 1014.4 - 0.0 - - - - - - -
30/02:00am 21.2 E 2 3 1014.7 - 0.0 - - - - - - -
30/01:30am 22.7 ENE 2 4 1014.6 - 0.0 - - - - - - -
30/01:00am 23.1 ENE 3 5 1015.1 - 0.0 - - - - - - -
30/12:30am 23.4 ENE 3 5 1014.9 - 0.0 - - - - - - -
30/12:00am 23.5 ENE 3 7 1014.8 - 0.0 - - - - - - -
 
Date/Time
CST
Temp

°C
Wind Pressure Rain
since 9am
mm
Weather Cloud Vis
km
Sea
Height
m
Swell
Dir
 
Speed
knots
Gust
knots
hPa Trend Height
m
Period
s
Dir
29/11:30pm 23.5 NE 3 5 1014.9 - 0.0 - - - - - - -

Other Formats:

Comma delimited format used in spreadsheet applications
http://www.bom.gov.au/fwo/IDD60701/IDD60701.99501.axf

JavaScript Object Notation format (JSON) in row-major order
http://www.bom.gov.au/fwo/IDD60701/IDD60701.99501.json